VXP423 KPWM-KHVN
Flight info
| Callsign | VXP423 |
|---|---|
| Flight time | 0h 59m |
| Altitude | 32000 |
| Route | LFV SEY ARCAV ORCHA KEYED |
| Aircraft | B737/M-SDE2E3FGHIRWXY/LB1 |
Departure
| Time | 2026-05-06 19:04 |
|---|---|
| Airport | Portland International Jetport (KPWM) |
Arrival
| Time | 2026-05-06 20:03 |
|---|---|
| Airport | Tweed New Haven Airport (KHVN) |
| Time | Latitude | Longitude | Altitude | Speed | Heading |
|---|---|---|---|---|---|
| 2026-05-06 18:46 | 43.64732 | -70.31286 | 69 ft | 0 kts | 64° |
| 2026-05-06 18:54 | 43.64729 | -70.31295 | 69 ft | 4 kts | 66° |
| 2026-05-06 18:55 | 43.64716 | -70.31326 | 62 ft | 4 kts | 63° |
| 2026-05-06 18:55 | 43.64708 | -70.31359 | 69 ft | 4 kts | 99° |
| 2026-05-06 18:55 | 43.64715 | -70.31380 | 67 ft | 0 kts | 141° |
| 2026-05-06 18:57 | 43.64709 | -70.31373 | 68 ft | 3 kts | 141° |
| 2026-05-06 18:58 | 43.64681 | -70.31341 | 72 ft | 7 kts | 143° |
| 2026-05-06 18:58 | 43.64644 | -70.31331 | 74 ft | 5 kts | 188° |
| 2026-05-06 18:58 | 43.64614 | -70.31338 | 73 ft | 2 kts | 188° |
| 2026-05-06 18:58 | 43.64600 | -70.31341 | 73 ft | 2 kts | 188° |
| 2026-05-06 18:59 | 43.64585 | -70.31343 | 72 ft | 2 kts | 187° |
| 2026-05-06 18:59 | 43.64569 | -70.31346 | 74 ft | 2 kts | 187° |
| 2026-05-06 18:59 | 43.64549 | -70.31348 | 73 ft | 5 kts | 184° |
| 2026-05-06 18:59 | 43.64507 | -70.31395 | 77 ft | 10 kts | 264° |
| 2026-05-06 19:00 | 43.64512 | -70.31491 | 74 ft | 10 kts | 275° |
| 2026-05-06 19:00 | 43.64519 | -70.31595 | 76 ft | 12 kts | 275° |
| 2026-05-06 19:00 | 43.64527 | -70.31725 | 81 ft | 15 kts | 275° |
| 2026-05-06 19:00 | 43.64538 | -70.31879 | 83 ft | 17 kts | 275° |
| 2026-05-06 19:01 | 43.64548 | -70.32035 | 90 ft | 16 kts | 275° |
| 2026-05-06 19:01 | 43.64558 | -70.32185 | 88 ft | 15 kts | 275° |
| 2026-05-06 19:01 | 43.64568 | -70.32329 | 90 ft | 15 kts | 275° |
| 2026-05-06 19:01 | 43.64579 | -70.32466 | 93 ft | 13 kts | 281° |
| 2026-05-06 19:02 | 43.64600 | -70.32556 | 92 ft | 7 kts | 289° |
| 2026-05-06 19:02 | 43.64588 | -70.32587 | 94 ft | 2 kts | 155° |
| 2026-05-06 19:02 | 43.64584 | -70.32565 | 94 ft | 2 kts | 97° |
| 2026-05-06 19:02 | 43.64583 | -70.32543 | 93 ft | 2 kts | 96° |
| 2026-05-06 19:03 | 43.64581 | -70.32522 | 91 ft | 2 kts | 96° |
| 2026-05-06 19:03 | 43.64578 | -70.32478 | 92 ft | 11 kts | 95° |
| 2026-05-06 19:03 | 43.64543 | -70.31963 | 84 ft | 100 kts | 95° |
| 2026-05-06 19:03 | 43.64452 | -70.30626 | 98 ft | 174 kts | 98° |
| 2026-05-06 19:04 | 43.64350 | -70.28847 | 818 ft | 195 kts | 101° |
| 2026-05-06 19:04 | 43.64027 | -70.27012 | 1713 ft | 203 kts | 126° |
| 2026-05-06 19:04 | 43.63195 | -70.25425 | 2184 ft | 210 kts | 151° |
| 2026-05-06 19:04 | 43.61896 | -70.24447 | 2743 ft | 217 kts | 165° |
| 2026-05-06 19:05 | 43.60495 | -70.23607 | 2956 ft | 221 kts | 165° |
| 2026-05-06 19:05 | 43.59107 | -70.22764 | 3167 ft | 216 kts | 166° |
| 2026-05-06 19:05 | 43.57703 | -70.22129 | 3649 ft | 209 kts | 181° |
| 2026-05-06 19:05 | 43.56258 | -70.21976 | 4615 ft | 208 kts | 185° |
| 2026-05-06 19:06 | 43.54800 | -70.21840 | 5496 ft | 211 kts | 185° |
| 2026-05-06 19:06 | 43.53325 | -70.21696 | 6339 ft | 216 kts | 185° |
| 2026-05-06 19:06 | 43.51753 | -70.21543 | 6934 ft | 233 kts | 185° |
| 2026-05-06 19:06 | 43.50118 | -70.21371 | 7924 ft | 238 kts | 184° |
| 2026-05-06 19:07 | 43.48465 | -70.21187 | 8985 ft | 241 kts | 184° |
| 2026-05-06 19:07 | 43.47353 | -70.21060 | 9679 ft | 243 kts | 183° |
| 2026-05-06 19:07 | 43.45067 | -70.20800 | 10611 ft | 262 kts | 183° |
| 2026-05-06 19:07 | 43.43119 | -70.20588 | 10835 ft | 293 kts | 182° |
| 2026-05-06 19:08 | 43.41043 | -70.20351 | 11339 ft | 310 kts | 182° |
| 2026-05-06 19:08 | 43.38856 | -70.20088 | 12145 ft | 318 kts | 182° |
| 2026-05-06 19:08 | 43.36634 | -70.19815 | 12996 ft | 323 kts | 182° |
| 2026-05-06 19:08 | 43.34384 | -70.19537 | 13803 ft | 330 kts | 182° |
| 2026-05-06 19:09 | 43.32070 | -70.19252 | 14582 ft | 335 kts | 182° |
| 2026-05-06 19:09 | 43.29727 | -70.18964 | 15386 ft | 340 kts | 182° |
| 2026-05-06 19:09 | 43.27389 | -70.18678 | 16137 ft | 345 kts | 182° |
| 2026-05-06 19:09 | 43.24949 | -70.18380 | 16894 ft | 350 kts | 182° |
| 2026-05-06 19:10 | 43.22497 | -70.18083 | 17620 ft | 356 kts | 182° |
| 2026-05-06 19:10 | 43.20044 | -70.17785 | 18298 ft | 362 kts | 183° |
| 2026-05-06 19:10 | 43.17515 | -70.17478 | 18953 ft | 366 kts | 182° |
| 2026-05-06 19:10 | 43.14974 | -70.17169 | 19651 ft | 368 kts | 182° |
| 2026-05-06 19:11 | 43.12410 | -70.16857 | 20340 ft | 371 kts | 182° |
| 2026-05-06 19:11 | 43.09817 | -70.16542 | 20983 ft | 375 kts | 182° |
| 2026-05-06 19:11 | 43.07199 | -70.16226 | 21629 ft | 379 kts | 182° |
| 2026-05-06 19:11 | 43.04555 | -70.15907 | 22262 ft | 383 kts | 182° |
| 2026-05-06 19:12 | 43.01895 | -70.15586 | 22874 ft | 386 kts | 182° |
| 2026-05-06 19:12 | 42.99199 | -70.15261 | 23454 ft | 390 kts | 182° |
| 2026-05-06 19:12 | 42.96479 | -70.14934 | 23956 ft | 394 kts | 182° |
| 2026-05-06 19:12 | 42.93775 | -70.14608 | 24482 ft | 396 kts | 182° |
| 2026-05-06 19:13 | 42.91017 | -70.14276 | 24996 ft | 399 kts | 182° |
| 2026-05-06 19:13 | 42.88247 | -70.13944 | 25486 ft | 402 kts | 182° |
| 2026-05-06 19:13 | 42.85447 | -70.13608 | 25944 ft | 404 kts | 182° |
| 2026-05-06 19:13 | 42.82617 | -70.13270 | 26307 ft | 411 kts | 182° |
| 2026-05-06 19:14 | 42.79755 | -70.12929 | 26719 ft | 415 kts | 182° |
| 2026-05-06 19:14 | 42.76876 | -70.12584 | 27221 ft | 416 kts | 182° |
| 2026-05-06 19:14 | 42.73988 | -70.12238 | 27694 ft | 419 kts | 182° |
| 2026-05-06 19:14 | 42.71071 | -70.11889 | 28123 ft | 421 kts | 182° |
| 2026-05-06 19:15 | 42.68172 | -70.11543 | 28548 ft | 424 kts | 182° |
| 2026-05-06 19:15 | 42.65226 | -70.11192 | 29047 ft | 425 kts | 181° |
| 2026-05-06 19:15 | 42.62272 | -70.10839 | 29556 ft | 426 kts | 181° |
| 2026-05-06 19:15 | 42.59321 | -70.10486 | 30107 ft | 425 kts | 181° |
| 2026-05-06 19:16 | 42.56384 | -70.10135 | 30675 ft | 422 kts | 181° |
| 2026-05-06 19:16 | 42.53472 | -70.09786 | 31293 ft | 418 kts | 182° |
| 2026-05-06 19:16 | 42.50603 | -70.09652 | 31767 ft | 408 kts | 192° |
| 2026-05-06 19:16 | 42.47879 | -70.10538 | 31873 ft | 400 kts | 207° |
| 2026-05-06 19:17 | 42.45418 | -70.12236 | 31868 ft | 396 kts | 217° |
| 2026-05-06 19:17 | 42.41159 | -70.16990 | 31900 ft | 400 kts | 224° |
| 2026-05-06 19:18 | 42.36958 | -70.21938 | 31910 ft | 400 kts | 223° |
| 2026-05-06 19:18 | 42.33504 | -70.25959 | 31902 ft | 390 kts | 223° |
| 2026-05-06 19:19 | 42.28683 | -70.31536 | 31881 ft | 393 kts | 223° |
| 2026-05-06 19:19 | 42.24507 | -70.36348 | 31895 ft | 396 kts | 223° |
| 2026-05-06 19:20 | 42.21012 | -70.40368 | 31900 ft | 398 kts | 223° |
| 2026-05-06 19:20 | 42.16773 | -70.45233 | 31884 ft | 400 kts | 223° |
| 2026-05-06 19:21 | 42.12529 | -70.50094 | 31861 ft | 401 kts | 224° |
| 2026-05-06 19:21 | 42.08276 | -70.54958 | 31892 ft | 402 kts | 224° |
| 2026-05-06 19:22 | 42.04039 | -70.59794 | 31879 ft | 402 kts | 224° |
| 2026-05-06 19:22 | 41.99775 | -70.64653 | 31868 ft | 401 kts | 224° |
| 2026-05-06 19:23 | 41.95516 | -70.69496 | 31875 ft | 398 kts | 224° |
| 2026-05-06 19:23 | 41.93420 | -70.71873 | 31662 ft | 390 kts | 224° |
| 2026-05-06 19:23 | 41.91372 | -70.74196 | 30979 ft | 390 kts | 224° |
| 2026-05-06 19:23 | 41.89285 | -70.76565 | 30073 ft | 395 kts | 223° |
| 2026-05-06 19:24 | 41.87192 | -70.78939 | 28970 ft | 401 kts | 223° |
| 2026-05-06 19:24 | 41.85050 | -70.81366 | 27866 ft | 405 kts | 223° |
| 2026-05-06 19:24 | 41.82893 | -70.83806 | 26775 ft | 408 kts | 223° |
| 2026-05-06 19:24 | 41.80716 | -70.86265 | 25647 ft | 411 kts | 223° |
| 2026-05-06 19:25 | 41.78519 | -70.88744 | 24747 ft | 411 kts | 224° |
| 2026-05-06 19:25 | 41.76352 | -70.91184 | 24288 ft | 403 kts | 224° |
| 2026-05-06 19:25 | 41.74186 | -70.93624 | 24161 ft | 407 kts | 223° |
| 2026-05-06 19:25 | 41.72020 | -70.96061 | 24034 ft | 403 kts | 223° |
| 2026-05-06 19:26 | 41.69882 | -70.98465 | 23922 ft | 402 kts | 223° |
| 2026-05-06 19:26 | 41.67738 | -71.00873 | 23864 ft | 400 kts | 223° |
| 2026-05-06 19:26 | 41.65608 | -71.03265 | 23890 ft | 401 kts | 223° |
| 2026-05-06 19:26 | 41.63481 | -71.05652 | 23884 ft | 401 kts | 223° |
| 2026-05-06 19:27 | 41.61369 | -71.08019 | 23901 ft | 401 kts | 223° |
| 2026-05-06 19:27 | 41.59222 | -71.10423 | 23899 ft | 402 kts | 223° |
| 2026-05-06 19:27 | 41.57073 | -71.12827 | 23905 ft | 402 kts | 223° |
| 2026-05-06 19:27 | 41.54941 | -71.15209 | 23868 ft | 392 kts | 223° |
| 2026-05-06 19:28 | 41.52885 | -71.17498 | 23676 ft | 378 kts | 223° |
| 2026-05-06 19:28 | 41.50891 | -71.19718 | 23135 ft | 370 kts | 223° |
| 2026-05-06 19:28 | 41.48922 | -71.21914 | 22325 ft | 368 kts | 224° |
| 2026-05-06 19:28 | 41.46979 | -71.24080 | 21577 ft | 366 kts | 223° |
| 2026-05-06 19:29 | 41.45034 | -71.26247 | 20891 ft | 362 kts | 224° |
| 2026-05-06 19:29 | 41.43106 | -71.28392 | 20247 ft | 358 kts | 224° |
| 2026-05-06 19:29 | 41.41205 | -71.30504 | 19614 ft | 354 kts | 224° |
| 2026-05-06 19:29 | 41.39317 | -71.32602 | 18980 ft | 351 kts | 224° |
| 2026-05-06 19:30 | 41.37465 | -71.34657 | 18374 ft | 348 kts | 224° |
| 2026-05-06 19:30 | 41.35615 | -71.36709 | 17716 ft | 344 kts | 223° |
| 2026-05-06 19:30 | 41.33788 | -71.38732 | 17095 ft | 339 kts | 223° |
| 2026-05-06 19:30 | 41.31993 | -71.40719 | 16501 ft | 334 kts | 223° |
| 2026-05-06 19:31 | 41.30214 | -71.42688 | 15908 ft | 329 kts | 223° |
| 2026-05-06 19:31 | 41.28467 | -71.44620 | 15325 ft | 325 kts | 223° |
| 2026-05-06 19:31 | 41.25025 | -71.48423 | 14365 ft | 318 kts | 222° |
| 2026-05-06 19:32 | 41.23330 | -71.50293 | 13936 ft | 314 kts | 222° |
| 2026-05-06 19:32 | 41.21652 | -71.52145 | 13396 ft | 310 kts | 222° |
| 2026-05-06 19:32 | 41.20000 | -71.53965 | 12754 ft | 307 kts | 221° |
| 2026-05-06 19:32 | 41.18360 | -71.55770 | 12141 ft | 304 kts | 221° |
| 2026-05-06 19:33 | 41.16759 | -71.57530 | 11538 ft | 301 kts | 221° |
| 2026-05-06 19:33 | 41.15159 | -71.59304 | 10911 ft | 298 kts | 221° |
| 2026-05-06 19:33 | 41.13575 | -71.61066 | 10345 ft | 295 kts | 221° |
| 2026-05-06 19:33 | 41.12010 | -71.62809 | 9763 ft | 292 kts | 221° |
| 2026-05-06 19:34 | 41.10458 | -71.64535 | 9076 ft | 291 kts | 221° |
| 2026-05-06 19:34 | 41.08936 | -71.66227 | 8867 ft | 277 kts | 221° |
| 2026-05-06 19:34 | 41.07493 | -71.67828 | 8593 ft | 266 kts | 221° |
| 2026-05-06 19:34 | 41.06082 | -71.69396 | 8076 ft | 265 kts | 221° |
| 2026-05-06 19:35 | 41.04660 | -71.70975 | 7486 ft | 267 kts | 220° |
| 2026-05-06 19:35 | 41.03236 | -71.72555 | 7013 ft | 266 kts | 220° |
| 2026-05-06 19:35 | 41.01823 | -71.74121 | 6542 ft | 265 kts | 220° |
| 2026-05-06 19:35 | 41.00410 | -71.75684 | 6202 ft | 264 kts | 220° |
| 2026-05-06 19:36 | 40.98992 | -71.77252 | 6107 ft | 266 kts | 220° |
| 2026-05-06 19:36 | 40.97660 | -71.78944 | 6046 ft | 265 kts | 232° |
| 2026-05-06 19:36 | 40.96743 | -71.81058 | 6054 ft | 267 kts | 243° |
| 2026-05-06 19:36 | 40.96206 | -71.83438 | 6048 ft | 273 kts | 255° |
| 2026-05-06 19:37 | 40.95941 | -71.85905 | 6044 ft | 274 kts | 257° |
| 2026-05-06 19:37 | 40.95710 | -71.88410 | 6030 ft | 274 kts | 258° |
| 2026-05-06 19:37 | 40.95483 | -71.90908 | 6029 ft | 272 kts | 257° |
| 2026-05-06 19:37 | 40.95254 | -71.93383 | 6049 ft | 270 kts | 257° |
| 2026-05-06 19:38 | 40.95027 | -71.95814 | 6030 ft | 259 kts | 257° |
| 2026-05-06 19:38 | 40.94809 | -71.98121 | 6022 ft | 245 kts | 256° |
| 2026-05-06 19:38 | 40.94600 | -72.00290 | 6027 ft | 238 kts | 256° |
| 2026-05-06 19:38 | 40.94388 | -72.02449 | 6034 ft | 236 kts | 256° |
| 2026-05-06 19:39 | 40.94172 | -72.04612 | 6047 ft | 237 kts | 256° |
| 2026-05-06 19:39 | 40.93955 | -72.06784 | 6046 ft | 238 kts | 256° |
| 2026-05-06 19:39 | 40.93738 | -72.08961 | 6043 ft | 239 kts | 256° |
| 2026-05-06 19:39 | 40.93521 | -72.11125 | 6032 ft | 240 kts | 256° |
| 2026-05-06 19:40 | 40.93302 | -72.13315 | 6042 ft | 240 kts | 256° |
| 2026-05-06 19:40 | 40.93083 | -72.15506 | 6040 ft | 240 kts | 256° |
| 2026-05-06 19:40 | 40.92863 | -72.17700 | 6035 ft | 241 kts | 256° |
| 2026-05-06 19:40 | 40.92642 | -72.19900 | 6025 ft | 241 kts | 256° |
| 2026-05-06 19:41 | 40.92420 | -72.22107 | 6023 ft | 242 kts | 256° |
| 2026-05-06 19:41 | 40.92197 | -72.24319 | 6021 ft | 242 kts | 256° |
| 2026-05-06 19:41 | 40.91973 | -72.26528 | 6029 ft | 242 kts | 255° |
| 2026-05-06 19:41 | 40.91754 | -72.28707 | 6017 ft | 237 kts | 255° |
| 2026-05-06 19:42 | 40.91696 | -72.30896 | 6016 ft | 241 kts | 265° |
| 2026-05-06 19:42 | 40.91974 | -72.33105 | 6014 ft | 249 kts | 275° |
| 2026-05-06 19:42 | 40.92506 | -72.35309 | 6021 ft | 253 kts | 278° |
| 2026-05-06 19:42 | 40.93094 | -72.37510 | 6022 ft | 254 kts | 279° |
| 2026-05-06 19:43 | 40.93689 | -72.39715 | 6029 ft | 255 kts | 279° |
| 2026-05-06 19:43 | 40.94277 | -72.41907 | 6015 ft | 256 kts | 279° |
| 2026-05-06 19:43 | 40.94867 | -72.44128 | 6015 ft | 256 kts | 279° |
| 2026-05-06 19:43 | 40.95455 | -72.46350 | 6024 ft | 255 kts | 279° |
| 2026-05-06 19:44 | 40.96040 | -72.48575 | 6030 ft | 255 kts | 278° |
| 2026-05-06 19:44 | 40.96621 | -72.50795 | 6026 ft | 256 kts | 278° |
| 2026-05-06 19:44 | 40.97202 | -72.53020 | 6019 ft | 256 kts | 278° |
| 2026-05-06 19:44 | 40.97783 | -72.55251 | 6017 ft | 256 kts | 278° |
| 2026-05-06 19:45 | 40.98363 | -72.57477 | 6023 ft | 256 kts | 278° |
| 2026-05-06 19:45 | 40.98942 | -72.59703 | 6016 ft | 255 kts | 278° |
| 2026-05-06 19:45 | 40.99518 | -72.61923 | 6040 ft | 254 kts | 279° |
| 2026-05-06 19:45 | 41.00090 | -72.64132 | 6034 ft | 254 kts | 279° |
| 2026-05-06 19:46 | 41.00663 | -72.66345 | 6030 ft | 253 kts | 279° |
| 2026-05-06 19:46 | 41.01510 | -72.68442 | 6006 ft | 272 kts | 302° |
| 2026-05-06 19:46 | 41.03082 | -72.69962 | 6000 ft | 292 kts | 327° |
| 2026-05-06 19:46 | 41.04983 | -72.70878 | 6024 ft | 297 kts | 333° |
| 2026-05-06 19:47 | 41.06872 | -72.71886 | 5938 ft | 287 kts | 316° |
| 2026-05-06 19:47 | 41.08286 | -72.73638 | 5780 ft | 273 kts | 299° |
| 2026-05-06 19:47 | 41.09455 | -72.75591 | 5603 ft | 269 kts | 297° |
| 2026-05-06 19:47 | 41.10578 | -72.77551 | 5428 ft | 265 kts | 297° |
| 2026-05-06 19:48 | 41.11675 | -72.79509 | 5250 ft | 263 kts | 297° |
| 2026-05-06 19:48 | 41.12760 | -72.81461 | 5069 ft | 263 kts | 297° |
| 2026-05-06 19:48 | 41.13840 | -72.83415 | 4884 ft | 262 kts | 297° |
| 2026-05-06 19:48 | 41.14913 | -72.85366 | 4707 ft | 261 kts | 297° |
| 2026-05-06 19:49 | 41.15972 | -72.87309 | 4548 ft | 260 kts | 297° |
| 2026-05-06 19:49 | 41.17025 | -72.89264 | 4362 ft | 259 kts | 297° |
| 2026-05-06 19:49 | 41.18070 | -72.91215 | 4185 ft | 258 kts | 297° |
| 2026-05-06 19:49 | 41.19108 | -72.93160 | 4001 ft | 257 kts | 297° |
| 2026-05-06 19:50 | 41.20141 | -72.95093 | 3845 ft | 257 kts | 297° |
| 2026-05-06 19:50 | 41.21155 | -72.97042 | 3712 ft | 256 kts | 297° |
| 2026-05-06 19:50 | 41.22133 | -72.98992 | 3573 ft | 258 kts | 299° |
| 2026-05-06 19:50 | 41.23481 | -73.00635 | 3406 ft | 273 kts | 326° |
| 2026-05-06 19:51 | 41.25341 | -73.01300 | 3249 ft | 282 kts | 355° |
| 2026-05-06 19:51 | 41.27282 | -73.01019 | 3121 ft | 278 kts | 5° |
| 2026-05-06 19:51 | 41.29158 | -73.00548 | 3012 ft | 271 kts | 7° |
| 2026-05-06 19:51 | 41.30994 | -73.00081 | 2993 ft | 268 kts | 7° |
| 2026-05-06 19:52 | 41.32831 | -72.99681 | 2997 ft | 265 kts | 356° |
| 2026-05-06 19:52 | 41.34640 | -72.99838 | 2999 ft | 258 kts | 348° |
| 2026-05-06 19:52 | 41.36410 | -73.00119 | 2994 ft | 255 kts | 347° |
| 2026-05-06 19:52 | 41.38181 | -73.00404 | 2992 ft | 256 kts | 347° |
| 2026-05-06 19:53 | 41.39943 | -73.00705 | 2996 ft | 255 kts | 347° |
| 2026-05-06 19:53 | 41.41715 | -73.01009 | 2998 ft | 257 kts | 346° |
| 2026-05-06 19:53 | 41.43488 | -73.01302 | 3003 ft | 257 kts | 347° |
| 2026-05-06 19:53 | 41.45237 | -73.01597 | 2986 ft | 257 kts | 347° |
| 2026-05-06 19:54 | 41.47012 | -73.01910 | 2977 ft | 257 kts | 347° |
| 2026-05-06 19:54 | 41.48779 | -73.02218 | 2986 ft | 257 kts | 347° |
| 2026-05-06 19:54 | 41.50559 | -73.02515 | 2988 ft | 258 kts | 349° |
| 2026-05-06 19:54 | 41.52360 | -73.02262 | 2970 ft | 267 kts | 18° |
| 2026-05-06 19:55 | 41.53898 | -73.00867 | 2980 ft | 271 kts | 49° |
| 2026-05-06 19:55 | 41.54774 | -72.98680 | 2981 ft | 268 kts | 79° |
| 2026-05-06 19:55 | 41.54732 | -72.96210 | 2990 ft | 266 kts | 113° |
| 2026-05-06 19:55 | 41.53814 | -72.94144 | 2987 ft | 256 kts | 142° |
| 2026-05-06 19:56 | 41.52400 | -72.92839 | 2981 ft | 243 kts | 161° |
| 2026-05-06 19:56 | 41.50879 | -72.91893 | 2978 ft | 240 kts | 162° |
| 2026-05-06 19:56 | 41.49398 | -72.90982 | 2987 ft | 226 kts | 162° |
| 2026-05-06 19:56 | 41.48032 | -72.90133 | 2953 ft | 206 kts | 163° |
| 2026-05-06 19:57 | 41.46789 | -72.89357 | 2883 ft | 189 kts | 163° |
| 2026-05-06 19:57 | 41.45661 | -72.88651 | 2877 ft | 169 kts | 164° |
| 2026-05-06 19:57 | 41.44665 | -72.88026 | 2849 ft | 154 kts | 166° |
| 2026-05-06 19:57 | 41.43687 | -72.87743 | 2817 ft | 139 kts | 186° |
| 2026-05-06 19:58 | 41.42703 | -72.87725 | 2757 ft | 146 kts | 189° |
| 2026-05-06 19:58 | 41.41730 | -72.87767 | 2670 ft | 133 kts | 190° |
| 2026-05-06 19:58 | 41.40805 | -72.87818 | 2451 ft | 127 kts | 191° |
| 2026-05-06 19:58 | 41.39965 | -72.87866 | 2247 ft | 116 kts | 191° |
| 2026-05-06 19:59 | 41.39206 | -72.87912 | 2200 ft | 105 kts | 192° |
| 2026-05-06 19:59 | 41.38484 | -72.87959 | 2214 ft | 106 kts | 192° |
| 2026-05-06 19:59 | 41.37738 | -72.88010 | 2123 ft | 108 kts | 191° |
| 2026-05-06 19:59 | 41.37013 | -72.88057 | 2018 ft | 103 kts | 191° |
| 2026-05-06 20:00 | 41.36281 | -72.88107 | 1853 ft | 109 kts | 191° |
| 2026-05-06 20:00 | 41.35543 | -72.88156 | 1803 ft | 102 kts | 189° |
| 2026-05-06 20:00 | 41.34836 | -72.88203 | 1794 ft | 103 kts | 189° |
| 2026-05-06 20:00 | 41.34091 | -72.88255 | 1620 ft | 109 kts | 189° |
| 2026-05-06 20:01 | 41.33329 | -72.88307 | 1461 ft | 110 kts | 188° |
| 2026-05-06 20:01 | 41.32576 | -72.88359 | 1218 ft | 111 kts | 187° |
| 2026-05-06 20:01 | 41.31800 | -72.88409 | 1079 ft | 109 kts | 190° |
| 2026-05-06 20:01 | 41.31048 | -72.88459 | 895 ft | 109 kts | 189° |
| 2026-05-06 20:02 | 41.30258 | -72.88514 | 729 ft | 118 kts | 185° |
| 2026-05-06 20:02 | 41.29401 | -72.88571 | 559 ft | 124 kts | 185° |
| 2026-05-06 20:02 | 41.28564 | -72.88625 | 330 ft | 124 kts | 183° |
| 2026-05-06 20:02 | 41.27713 | -72.88671 | 182 ft | 127 kts | 184° |
| 2026-05-06 20:03 | 41.26834 | -72.88743 | 20 ft | 122 kts | 184° |
| 2026-05-06 20:03 | 41.26196 | -72.88786 | 17 ft | 73 kts | 183° |
| 2026-05-06 20:03 | 41.25885 | -72.88808 | 18 ft | 17 kts | 182° |
| 2026-05-06 20:03 | 41.25841 | -72.88780 | 18 ft | 8 kts | 116° |
| 2026-05-06 20:04 | 41.25839 | -72.88726 | 17 ft | 3 kts | 73° |
| 2026-05-06 20:04 | 41.25841 | -72.88721 | 16 ft | 0 kts | 66° |
| 2026-05-06 20:04 | 41.25852 | -72.88708 | 18 ft | 4 kts | 32° |
| 2026-05-06 20:04 | 41.25889 | -72.88697 | 16 ft | 7 kts | 10° |
| 2026-05-06 20:05 | 41.25947 | -72.88683 | 16 ft | 9 kts | 9° |
| 2026-05-06 20:05 | 41.26017 | -72.88667 | 16 ft | 11 kts | 10° |
| 2026-05-06 20:05 | 41.26096 | -72.88649 | 16 ft | 12 kts | 10° |
| 2026-05-06 20:05 | 41.26186 | -72.88627 | 18 ft | 14 kts | 10° |
| 2026-05-06 20:06 | 41.26278 | -72.88599 | 16 ft | 13 kts | 27° |
| 2026-05-06 20:06 | 41.26352 | -72.88528 | 16 ft | 13 kts | 37° |
| 2026-05-06 20:06 | 41.26414 | -72.88465 | 16 ft | 4 kts | 36° |
| 2026-05-06 20:06 | 41.26418 | -72.88460 | 17 ft | 0 kts | 36° |
| 2026-05-06 20:07 | 41.26447 | -72.88461 | 16 ft | 7 kts | 329° |
| 2026-05-06 20:07 | 41.26481 | -72.88507 | 16 ft | 7 kts | 312° |
| 2026-05-06 20:07 | 41.26516 | -72.88560 | 17 ft | 9 kts | 311° |
| 2026-05-06 20:07 | 41.26563 | -72.88629 | 17 ft | 11 kts | 311° |
| 2026-05-06 20:08 | 41.26620 | -72.88714 | 16 ft | 13 kts | 311° |
| 2026-05-06 20:08 | 41.26677 | -72.88800 | 15 ft | 7 kts | 311° |
| 2026-05-06 20:08 | 41.26696 | -72.88828 | 14 ft | 0 kts | 311° |
| 2026-05-06 20:08 | 41.26703 | -72.88838 | 15 ft | 6 kts | 313° |
| 2026-05-06 20:09 | 41.26739 | -72.88889 | 15 ft | 8 kts | 313° |
| 2026-05-06 20:09 | 41.26779 | -72.88948 | 17 ft | 8 kts | 311° |
| 2026-05-06 20:09 | 41.26813 | -72.89010 | 16 ft | 8 kts | 304° |
| 2026-05-06 20:09 | 41.26846 | -72.89060 | 18 ft | 2 kts | 311° |
| 2026-05-06 20:10 | 41.26847 | -72.89062 | 18 ft | 1 kts | 311° |
| 2026-05-06 20:10 | 41.26856 | -72.89075 | 16 ft | 2 kts | 310° |
| 2026-05-06 20:10 | 41.26859 | -72.89079 | 16 ft | 0 kts | 311° |